sensor_id;sensor_type;location;lat;lon;timestamp;P1;durP1;ratioP1;P2;durP2;ratioP2
49235;SDS011;35067;48.134;8.378;2023-10-09T00:00:14;11.68;;;3.80;;
49235;SDS011;35067;48.134;8.378;2023-10-09T00:01:34;13.52;;;3.70;;
49235;SDS011;35067;48.134;8.378;2023-10-09T00:02:38;14.05;;;4.10;;
49235;SDS011;35067;48.134;8.378;2023-10-09T00:03:46;16.88;;;4.63;;
49235;SDS011;35067;48.134;8.378;2023-10-09T00:04:53;13.35;;;4.28;;
49235;SDS011;35067;48.134;8.378;2023-10-09T00:05:57;15.52;;;3.97;;
49235;SDS011;35067;48.134;8.378;2023-10-09T00:06:58;12.60;;;4.57;;
49235;SDS011;35067;48.134;8.378;2023-10-09T00:07:59;13.50;;;4.55;;
49235;SDS011;35067;48.134;8.378;2023-10-09T00:09:03;16.60;;;5.03;;
49235;SDS011;35067;48.134;8.378;2023-10-09T00:10:28;15.32;;;4.07;;
49235;SDS011;35067;48.134;8.378;2023-10-09T00:11:35;11.23;;;3.75;;
49235;SDS011;35067;48.134;8.378;2023-10-09T00:12:41;15.68;;;4.28;;
49235;SDS011;35067;48.134;8.378;2023-10-09T00:13:44;15.80;;;3.78;;
49235;SDS011;35067;48.134;8.378;2023-10-09T00:14:52;15.10;;;4.00;;
49235;SDS011;35067;48.134;8.378;2023-10-09T00:15:56;13.02;;;3.83;;
49235;SDS011;35067;48.134;8.378;2023-10-09T00:17:03;13.05;;;4.43;;
49235;SDS011;35067;48.134;8.378;2023-10-09T00:18:23;12.85;;;4.18;;
49235;SDS011;35067;48.134;8.378;2023-10-09T00:19:29;15.55;;;4.88;;
49235;SDS011;35067;48.134;8.378;2023-10-09T00:20:36;11.55;;;3.55;;
49235;SDS011;35067;48.134;8.378;2023-10-09T00:21:46;15.18;;;4.32;;
49235;SDS011;35067;48.134;8.378;2023-10-09T00:22:48;11.80;;;3.53;;
49235;SDS011;35067;48.134;8.378;2023-10-09T00:23:48;13.00;;;4.10;;
49235;SDS011;35067;48.134;8.378;2023-10-09T00:24:54;13.70;;;4.30;;
49235;SDS011;35067;48.134;8.378;2023-10-09T00:26:11;15.52;;;3.78;;
49235;SDS011;35067;48.134;8.378;2023-10-09T00:27:19;15.00;;;3.97;;
49235;SDS011;35067;48.134;8.378;2023-10-09T00:28:21;13.73;;;3.75;;
49235;SDS011;35067;48.134;8.378;2023-10-09T00:29:23;15.48;;;4.55;;
49235;SDS011;35067;48.134;8.378;2023-10-09T00:30:26;10.80;;;3.88;;
49235;SDS011;35067;48.134;8.378;2023-10-09T00:31:29;13.15;;;4.35;;
49235;SDS011;35067;48.134;8.378;2023-10-09T00:32:33;14.23;;;3.88;;
49235;SDS011;35067;48.134;8.378;2023-10-09T00:33:37;11.70;;;3.95;;
49235;SDS011;35067;48.134;8.378;2023-10-09T00:34:38;11.63;;;4.47;;
49235;SDS011;35067;48.134;8.378;2023-10-09T00:35:41;10.52;;;3.72;;
49235;SDS011;35067;48.134;8.378;2023-10-09T00:36:45;13.07;;;4.03;;
49235;SDS011;35067;48.134;8.378;2023-10-09T00:37:52;12.52;;;3.70;;
49235;SDS011;35067;48.134;8.378;2023-10-09T00:38:57;14.90;;;4.30;;
49235;SDS011;35067;48.134;8.378;2023-10-09T00:40:10;9.77;;;3.83;;
49235;SDS011;35067;48.134;8.378;2023-10-09T00:41:20;14.68;;;4.18;;
49235;SDS011;35067;48.134;8.378;2023-10-09T00:42:24;14.65;;;3.80;;
49235;SDS011;35067;48.134;8.378;2023-10-09T00:43:34;12.93;;;3.92;;
49235;SDS011;35067;48.134;8.378;2023-10-09T00:44:36;17.83;;;4.07;;
49235;SDS011;35067;48.134;8.378;2023-10-09T00:45:41;14.85;;;3.78;;
49235;SDS011;35067;48.134;8.378;2023-10-09T00:46:44;14.93;;;3.75;;
49235;SDS011;35067;48.134;8.378;2023-10-09T00:47:47;11.18;;;3.53;;
49235;SDS011;35067;48.134;8.378;2023-10-09T00:48:49;13.73;;;3.95;;
49235;SDS011;35067;48.134;8.378;2023-10-09T00:49:57;10.68;;;3.67;;
49235;SDS011;35067;48.134;8.378;2023-10-09T00:51:09;11.88;;;3.90;;
49235;SDS011;35067;48.134;8.378;2023-10-09T00:52:18;11.90;;;3.80;;
49235;SDS011;35067;48.134;8.378;2023-10-09T00:53:29;15.63;;;3.92;;
49235;SDS011;35067;48.134;8.378;2023-10-09T00:54:33;16.48;;;3.97;;
49235;SDS011;35067;48.134;8.378;2023-10-09T00:55:41;11.02;;;3.90;;
49235;SDS011;35067;48.134;8.378;2023-10-09T00:56:45;10.80;;;3.40;;
49235;SDS011;35067;48.134;8.378;2023-10-09T00:57:57;18.02;;;4.20;;
49235;SDS011;35067;48.134;8.378;2023-10-09T00:58:59;10.85;;;3.67;;
49235;SDS011;35067;48.134;8.378;2023-10-09T01:00:10;11.73;;;3.58;;
49235;SDS011;35067;48.134;8.378;2023-10-09T01:01:31;13.50;;;3.97;;
49235;SDS011;35067;48.134;8.378;2023-10-09T01:02:36;11.68;;;3.55;;
49235;SDS011;35067;48.134;8.378;2023-10-09T01:03:42;10.18;;;3.78;;
49235;SDS011;35067;48.134;8.378;2023-10-09T01:04:46;12.93;;;3.70;;
49235;SDS011;35067;48.134;8.378;2023-10-09T01:05:50;11.17;;;3.37;;
49235;SDS011;35067;48.134;8.378;2023-10-09T01:07:08;11.38;;;3.75;;
49235;SDS011;35067;48.134;8.378;2023-10-09T01:08:15;13.18;;;4.15;;
49235;SDS011;35067;48.134;8.378;2023-10-09T01:09:24;14.93;;;3.95;;
49235;SDS011;35067;48.134;8.378;2023-10-09T01:10:28;10.55;;;4.22;;
49235;SDS011;35067;48.134;8.378;2023-10-09T01:11:34;11.85;;;4.00;;
49235;SDS011;35067;48.134;8.378;2023-10-09T01:12:38;11.32;;;3.33;;
49235;SDS011;35067;48.134;8.378;2023-10-09T01:13:44;9.57;;;3.28;;
49235;SDS011;35067;48.134;8.378;2023-10-09T01:14:46;14.02;;;4.32;;
49235;SDS011;35067;48.134;8.378;2023-10-09T01:15:55;13.27;;;3.80;;
49235;SDS011;35067;48.134;8.378;2023-10-09T01:16:58;13.63;;;3.65;;
49235;SDS011;35067;48.134;8.378;2023-10-09T01:18:01;10.18;;;3.17;;
49235;SDS011;35067;48.134;8.378;2023-10-09T01:19:02;10.85;;;3.35;;
49235;SDS011;35067;48.134;8.378;2023-10-09T01:20:13;13.82;;;3.50;;
49235;SDS011;35067;48.134;8.378;2023-10-09T01:21:17;10.25;;;3.35;;
49235;SDS011;35067;48.134;8.378;2023-10-09T01:22:21;12.32;;;3.60;;
49235;SDS011;35067;48.134;8.378;2023-10-09T01:23:22;13.43;;;2.83;;
49235;SDS011;35067;48.134;8.378;2023-10-09T01:24:23;13.15;;;3.55;;
49235;SDS011;35067;48.134;8.378;2023-10-09T01:25:26;9.52;;;3.35;;
49235;SDS011;35067;48.134;8.378;2023-10-09T01:26:42;9.85;;;3.10;;
49235;SDS011;35067;48.134;8.378;2023-10-09T01:27:54;9.13;;;3.00;;
49235;SDS011;35067;48.134;8.378;2023-10-09T01:28:56;9.88;;;3.20;;
49235;SDS011;35067;48.134;8.378;2023-10-09T01:29:59;11.98;;;3.22;;
49235;SDS011;35067;48.134;8.378;2023-10-09T01:31:00;8.63;;;3.17;;
49235;SDS011;35067;48.134;8.378;2023-10-09T01:32:01;10.27;;;3.27;;
49235;SDS011;35067;48.134;8.378;2023-10-09T01:33:01;13.70;;;3.17;;
49235;SDS011;35067;48.134;8.378;2023-10-09T01:34:13;8.13;;;2.65;;
49235;SDS011;35067;48.134;8.378;2023-10-09T01:35:14;13.23;;;3.38;;
49235;SDS011;35067;48.134;8.378;2023-10-09T01:36:21;13.05;;;3.22;;
49235;SDS011;35067;48.134;8.378;2023-10-09T01:37:31;12.88;;;3.33;;
49235;SDS011;35067;48.134;8.378;2023-10-09T01:38:36;11.57;;;2.88;;
49235;SDS011;35067;48.134;8.378;2023-10-09T01:39:47;8.68;;;3.33;;
49235;SDS011;35067;48.134;8.378;2023-10-09T01:40:49;14.60;;;3.38;;
49235;SDS011;35067;48.134;8.378;2023-10-09T01:41:52;14.68;;;3.53;;
49235;SDS011;35067;48.134;8.378;2023-10-09T01:42:58;7.65;;;3.20;;
49235;SDS011;35067;48.134;8.378;2023-10-09T01:43:59;13.93;;;3.10;;
49235;SDS011;35067;48.134;8.378;2023-10-09T01:45:10;11.73;;;3.30;;
49235;SDS011;35067;48.134;8.378;2023-10-09T01:46:26;13.25;;;3.63;;
49235;SDS011;35067;48.134;8.378;2023-10-09T01:47:27;8.00;;;3.13;;
49235;SDS011;35067;48.134;8.378;2023-10-09T01:48:31;10.38;;;3.10;;
49235;SDS011;35067;48.134;8.378;2023-10-09T01:49:38;11.45;;;3.22;;
49235;SDS011;35067;48.134;8.378;2023-10-09T01:50:41;7.57;;;3.03;;
49235;SDS011;35067;48.134;8.378;2023-10-09T01:51:42;11.70;;;3.30;;
49235;SDS011;35067;48.134;8.378;2023-10-09T01:52:42;10.07;;;2.87;;
49235;SDS011;35067;48.134;8.378;2023-10-09T01:53:44;8.67;;;3.13;;
49235;SDS011;35067;48.134;8.378;2023-10-09T01:54:50;13.32;;;3.25;;
49235;SDS011;35067;48.134;8.378;2023-10-09T01:55:51;14.48;;;3.20;;
49235;SDS011;35067;48.134;8.378;2023-10-09T01:56:55;9.45;;;2.92;;
49235;SDS011;35067;48.134;8.378;2023-10-09T01:57:56;7.72;;;2.85;;
49235;SDS011;35067;48.134;8.378;2023-10-09T01:58:58;8.52;;;2.70;;
49235;SDS011;35067;48.134;8.378;2023-10-09T02:00:06;7.50;;;2.60;;
49235;SDS011;35067;48.134;8.378;2023-10-09T02:01:07;9.23;;;2.47;;
49235;SDS011;35067;48.134;8.378;2023-10-09T02:02:19;12.40;;;3.28;;
49235;SDS011;35067;48.134;8.378;2023-10-09T02:03:26;14.20;;;3.78;;
49235;SDS011;35067;48.134;8.378;2023-10-09T02:04:29;8.88;;;2.80;;
49235;SDS011;35067;48.134;8.378;2023-10-09T02:05:29;7.07;;;2.63;;
49235;SDS011;35067;48.134;8.378;2023-10-09T02:06:33;9.15;;;2.80;;
49235;SDS011;35067;48.134;8.378;2023-10-09T02:07:38;10.02;;;2.88;;
49235;SDS011;35067;48.134;8.378;2023-10-09T02:08:44;9.30;;;3.30;;
49235;SDS011;35067;48.134;8.378;2023-10-09T02:09:49;8.40;;;3.13;;
49235;SDS011;35067;48.134;8.378;2023-10-09T02:10:50;10.13;;;3.00;;
49235;SDS011;35067;48.134;8.378;2023-10-09T02:11:55;11.63;;;3.20;;
49235;SDS011;35067;48.134;8.378;2023-10-09T02:12:56;8.93;;;2.93;;
49235;SDS011;35067;48.134;8.378;2023-10-09T02:14:06;10.45;;;3.00;;
49235;SDS011;35067;48.134;8.378;2023-10-09T02:15:19;12.07;;;3.08;;
49235;SDS011;35067;48.134;8.378;2023-10-09T02:16:40;8.95;;;2.95;;
49235;SDS011;35067;48.134;8.378;2023-10-09T02:17:42;8.85;;;2.63;;
49235;SDS011;35067;48.134;8.378;2023-10-09T02:19:00;9.40;;;2.72;;
49235;SDS011;35067;48.134;8.378;2023-10-09T02:20:07;9.55;;;2.97;;
49235;SDS011;35067;48.134;8.378;2023-10-09T02:21:18;9.07;;;3.05;;
49235;SDS011;35067;48.134;8.378;2023-10-09T02:22:32;7.95;;;3.08;;
49235;SDS011;35067;48.134;8.378;2023-10-09T02:23:35;11.90;;;3.35;;
49235;SDS011;35067;48.134;8.378;2023-10-09T02:24:46;8.63;;;2.80;;
49235;SDS011;35067;48.134;8.378;2023-10-09T02:25:50;8.80;;;3.22;;
49235;SDS011;35067;48.134;8.378;2023-10-09T02:26:53;8.48;;;3.00;;
49235;SDS011;35067;48.134;8.378;2023-10-09T02:27:54;8.40;;;2.70;;
49235;SDS011;35067;48.134;8.378;2023-10-09T02:28:55;9.52;;;2.58;;
49235;SDS011;35067;48.134;8.378;2023-10-09T02:29:58;11.50;;;2.60;;
49235;SDS011;35067;48.134;8.378;2023-10-09T02:30:59;13.50;;;3.30;;
49235;SDS011;35067;48.134;8.378;2023-10-09T02:32:02;7.90;;;2.50;;
49235;SDS011;35067;48.134;8.378;2023-10-09T02:33:14;14.75;;;3.10;;
49235;SDS011;35067;48.134;8.378;2023-10-09T02:34:27;10.15;;;2.50;;
49235;SDS011;35067;48.134;8.378;2023-10-09T02:35:30;7.22;;;2.72;;
49235;SDS011;35067;48.134;8.378;2023-10-09T02:36:42;9.32;;;2.75;;
49235;SDS011;35067;48.134;8.378;2023-10-09T02:37:49;7.85;;;2.80;;
49235;SDS011;35067;48.134;8.378;2023-10-09T02:38:49;13.20;;;2.70;;
49235;SDS011;35067;48.134;8.378;2023-10-09T02:39:53;8.35;;;2.78;;
49235;SDS011;35067;48.134;8.378;2023-10-09T02:40:55;7.43;;;1.98;;
49235;SDS011;35067;48.134;8.378;2023-10-09T02:42:04;10.25;;;2.75;;
49235;SDS011;35067;48.134;8.378;2023-10-09T02:43:19;8.38;;;2.38;;
49235;SDS011;35067;48.134;8.378;2023-10-09T02:44:21;11.48;;;2.72;;
49235;SDS011;35067;48.134;8.378;2023-10-09T02:45:26;14.70;;;3.00;;
49235;SDS011;35067;48.134;8.378;2023-10-09T02:46:34;7.40;;;2.88;;
49235;SDS011;35067;48.134;8.378;2023-10-09T02:47:35;8.80;;;2.30;;
49235;SDS011;35067;48.134;8.378;2023-10-09T02:48:39;9.32;;;2.58;;
49235;SDS011;35067;48.134;8.378;2023-10-09T02:49:46;11.30;;;2.75;;
49235;SDS011;35067;48.134;8.378;2023-10-09T02:50:50;7.10;;;2.40;;
49235;SDS011;35067;48.134;8.378;2023-10-09T02:51:51;13.87;;;4.10;;
49235;SDS011;35067;48.134;8.378;2023-10-09T02:52:53;5.90;;;2.40;;
49235;SDS011;35067;48.134;8.378;2023-10-09T02:54:01;11.05;;;2.97;;
49235;SDS011;35067;48.134;8.378;2023-10-09T02:55:19;9.45;;;2.35;;
49235;SDS011;35067;48.134;8.378;2023-10-09T02:56:27;11.20;;;2.53;;
49235;SDS011;35067;48.134;8.378;2023-10-09T02:57:37;8.35;;;2.45;;
49235;SDS011;35067;48.134;8.378;2023-10-09T02:58:39;10.93;;;3.10;;
49235;SDS011;35067;48.134;8.378;2023-10-09T02:59:40;11.27;;;2.60;;
49235;SDS011;35067;48.134;8.378;2023-10-09T03:00:45;12.77;;;2.63;;
49235;SDS011;35067;48.134;8.378;2023-10-09T03:01:47;7.70;;;2.30;;
49235;SDS011;35067;48.134;8.378;2023-10-09T03:02:48;14.30;;;3.33;;
49235;SDS011;35067;48.134;8.378;2023-10-09T03:03:50;9.52;;;2.70;;
49235;SDS011;35067;48.134;8.378;2023-10-09T03:04:51;12.30;;;2.63;;
49235;SDS011;35067;48.134;8.378;2023-10-09T03:05:55;10.52;;;2.47;;
49235;SDS011;35067;48.134;8.378;2023-10-09T03:06:56;9.20;;;2.77;;
49235;SDS011;35067;48.134;8.378;2023-10-09T03:07:57;10.57;;;2.53;;
49235;SDS011;35067;48.134;8.378;2023-10-09T03:09:00;13.00;;;2.72;;
49235;SDS011;35067;48.134;8.378;2023-10-09T03:10:06;9.88;;;2.55;;
49235;SDS011;35067;48.134;8.378;2023-10-09T03:11:09;10.30;;;2.65;;
49235;SDS011;35067;48.134;8.378;2023-10-09T03:12:13;9.77;;;2.60;;
49235;SDS011;35067;48.134;8.378;2023-10-09T03:13:13;7.17;;;2.87;;
49235;SDS011;35067;48.134;8.378;2023-10-09T03:14:19;9.30;;;2.50;;
49235;SDS011;35067;48.134;8.378;2023-10-09T03:15:21;9.60;;;2.72;;
49235;SDS011;35067;48.134;8.378;2023-10-09T03:16:22;8.68;;;3.15;;
49235;SDS011;35067;48.134;8.378;2023-10-09T03:17:23;11.37;;;2.50;;
49235;SDS011;35067;48.134;8.378;2023-10-09T03:18:23;7.17;;;2.70;;
49235;SDS011;35067;48.134;8.378;2023-10-09T03:19:27;6.53;;;2.53;;
49235;SDS011;35067;48.134;8.378;2023-10-09T03:20:29;10.07;;;2.80;;
49235;SDS011;35067;48.134;8.378;2023-10-09T03:21:30;10.82;;;3.00;;
49235;SDS011;35067;48.134;8.378;2023-10-09T03:22:31;13.60;;;2.83;;
49235;SDS011;35067;48.134;8.378;2023-10-09T03:23:31;11.70;;;2.43;;
49235;SDS011;35067;48.134;8.378;2023-10-09T03:24:34;10.02;;;2.75;;
49235;SDS011;35067;48.134;8.378;2023-10-09T03:25:35;9.73;;;2.42;;
49235;SDS011;35067;48.134;8.378;2023-10-09T03:26:37;9.20;;;2.58;;
49235;SDS011;35067;48.134;8.378;2023-10-09T03:27:39;9.03;;;2.70;;
49235;SDS011;35067;48.134;8.378;2023-10-09T03:28:47;12.15;;;2.85;;
49235;SDS011;35067;48.134;8.378;2023-10-09T03:29:48;10.13;;;2.80;;
49235;SDS011;35067;48.134;8.378;2023-10-09T03:30:53;9.77;;;2.92;;
49235;SDS011;35067;48.134;8.378;2023-10-09T03:31:54;11.70;;;2.70;;
49235;SDS011;35067;48.134;8.378;2023-10-09T03:33:00;11.32;;;2.70;;
49235;SDS011;35067;48.134;8.378;2023-10-09T03:34:03;10.38;;;2.55;;
49235;SDS011;35067;48.134;8.378;2023-10-09T03:35:08;15.18;;;2.90;;
49235;SDS011;35067;48.134;8.378;2023-10-09T03:36:13;9.95;;;2.60;;
49235;SDS011;35067;48.134;8.378;2023-10-09T03:37:16;11.95;;;2.72;;
49235;SDS011;35067;48.134;8.378;2023-10-09T03:38:33;9.15;;;2.65;;
49235;SDS011;35067;48.134;8.378;2023-10-09T03:39:34;13.73;;;3.20;;
49235;SDS011;35067;48.134;8.378;2023-10-09T03:40:42;10.43;;;2.60;;
49235;SDS011;35067;48.134;8.378;2023-10-09T03:41:43;10.95;;;2.45;;
49235;SDS011;35067;48.134;8.378;2023-10-09T03:42:47;12.63;;;3.13;;
49235;SDS011;35067;48.134;8.378;2023-10-09T03:43:48;11.32;;;2.83;;
49235;SDS011;35067;48.134;8.378;2023-10-09T03:44:49;12.57;;;3.13;;
49235;SDS011;35067;48.134;8.378;2023-10-09T03:45:53;8.80;;;2.30;;
49235;SDS011;35067;48.134;8.378;2023-10-09T03:46:54;9.33;;;3.07;;
49235;SDS011;35067;48.134;8.378;2023-10-09T03:47:56;14.40;;;3.20;;
49235;SDS011;35067;48.134;8.378;2023-10-09T03:49:12;12.77;;;3.28;;
49235;SDS011;35067;48.134;8.378;2023-10-09T03:50:13;10.80;;;3.17;;
49235;SDS011;35067;48.134;8.378;2023-10-09T03:51:32;10.02;;;2.65;;
49235;SDS011;35067;48.134;8.378;2023-10-09T03:52:33;13.30;;;2.77;;
49235;SDS011;35067;48.134;8.378;2023-10-09T03:53:35;10.48;;;2.80;;
49235;SDS011;35067;48.134;8.378;2023-10-09T03:54:36;11.25;;;2.80;;
49235;SDS011;35067;48.134;8.378;2023-10-09T03:55:38;8.35;;;2.50;;
49235;SDS011;35067;48.134;8.378;2023-10-09T03:56:39;13.87;;;2.80;;
49235;SDS011;35067;48.134;8.378;2023-10-09T03:57:40;13.10;;;2.63;;
49235;SDS011;35067;48.134;8.378;2023-10-09T03:58:41;11.07;;;3.37;;
49235;SDS011;35067;48.134;8.378;2023-10-09T03:59:45;10.07;;;2.50;;
49235;SDS011;35067;48.134;8.378;2023-10-09T04:00:46;12.20;;;2.40;;
49235;SDS011;35067;48.134;8.378;2023-10-09T04:01:49;7.63;;;2.45;;
49235;SDS011;35067;48.134;8.378;2023-10-09T04:02:54;11.47;;;3.43;;
49235;SDS011;35067;48.134;8.378;2023-10-09T04:03:57;16.27;;;2.83;;
49235;SDS011;35067;48.134;8.378;2023-10-09T04:04:59;11.00;;;2.90;;
49235;SDS011;35067;48.134;8.378;2023-10-09T04:06:00;11.83;;;2.50;;
49235;SDS011;35067;48.134;8.378;2023-10-09T04:07:01;12.67;;;2.90;;
49235;SDS011;35067;48.134;8.378;2023-10-09T04:08:02;10.07;;;2.67;;
49235;SDS011;35067;48.134;8.378;2023-10-09T04:09:12;8.30;;;2.42;;
49235;SDS011;35067;48.134;8.378;2023-10-09T04:10:15;10.53;;;3.20;;
49235;SDS011;35067;48.134;8.378;2023-10-09T04:11:34;8.67;;;2.40;;
49235;SDS011;35067;48.134;8.378;2023-10-09T04:12:36;11.98;;;2.78;;
49235;SDS011;35067;48.134;8.378;2023-10-09T04:13:39;9.20;;;3.10;;
49235;SDS011;35067;48.134;8.378;2023-10-09T04:14:40;14.47;;;3.13;;
49235;SDS011;35067;48.134;8.378;2023-10-09T04:15:50;10.55;;;3.25;;
49235;SDS011;35067;48.134;8.378;2023-10-09T04:16:53;6.90;;;2.55;;
49235;SDS011;35067;48.134;8.378;2023-10-09T04:18:04;11.27;;;3.45;;
49235;SDS011;35067;48.134;8.378;2023-10-09T04:19:06;10.77;;;3.00;;
49235;SDS011;35067;48.134;8.378;2023-10-09T04:20:11;10.05;;;2.63;;
49235;SDS011;35067;48.134;8.378;2023-10-09T04:21:34;8.65;;;2.47;;
49235;SDS011;35067;48.134;8.378;2023-10-09T04:22:38;15.07;;;2.75;;
49235;SDS011;35067;48.134;8.378;2023-10-09T04:23:49;12.88;;;3.00;;
49235;SDS011;35067;48.134;8.378;2023-10-09T04:25:09;15.02;;;3.13;;
49235;SDS011;35067;48.134;8.378;2023-10-09T04:26:25;7.68;;;2.75;;
49235;SDS011;35067;48.134;8.378;2023-10-09T04:27:25;11.03;;;3.10;;
49235;SDS011;35067;48.134;8.378;2023-10-09T04:28:36;12.32;;;2.33;;
49235;SDS011;35067;48.134;8.378;2023-10-09T04:29:37;9.65;;;2.50;;
49235;SDS011;35067;48.134;8.378;2023-10-09T04:30:39;16.70;;;3.50;;
49235;SDS011;35067;48.134;8.378;2023-10-09T04:32:02;11.00;;;2.63;;
49235;SDS011;35067;48.134;8.378;2023-10-09T04:33:06;9.50;;;2.75;;
49235;SDS011;35067;48.134;8.378;2023-10-09T04:34:25;11.60;;;2.97;;
49235;SDS011;35067;48.134;8.378;2023-10-09T04:35:34;6.78;;;2.45;;
49235;SDS011;35067;48.134;8.378;2023-10-09T04:36:38;10.10;;;2.50;;
49235;SDS011;35067;48.134;8.378;2023-10-09T04:37:49;10.65;;;2.92;;
49235;SDS011;35067;48.134;8.378;2023-10-09T04:39:00;15.15;;;2.95;;
49235;SDS011;35067;48.134;8.378;2023-10-09T04:40:04;13.10;;;3.13;;
49235;SDS011;35067;48.134;8.378;2023-10-09T04:41:12;7.78;;;2.65;;
49235;SDS011;35067;48.134;8.378;2023-10-09T04:42:27;9.43;;;2.72;;
49235;SDS011;35067;48.134;8.378;2023-10-09T04:43:36;11.88;;;2.53;;
49235;SDS011;35067;48.134;8.378;2023-10-09T04:44:43;13.38;;;3.25;;
49235;SDS011;35067;48.134;8.378;2023-10-09T04:46:18;14.15;;;3.20;;
49235;SDS011;35067;48.134;8.378;2023-10-09T04:47:23;12.38;;;2.75;;
49235;SDS011;35067;48.134;8.378;2023-10-09T04:48:25;8.87;;;2.97;;
49235;SDS011;35067;48.134;8.378;2023-10-09T04:49:38;13.70;;;3.10;;
49235;SDS011;35067;48.134;8.378;2023-10-09T04:50:49;11.20;;;3.30;;
49235;SDS011;35067;48.134;8.378;2023-10-09T04:52:09;12.05;;;2.65;;
49235;SDS011;35067;48.134;8.378;2023-10-09T04:53:18;11.98;;;2.40;;
49235;SDS011;35067;48.134;8.378;2023-10-09T04:54:19;10.43;;;2.90;;
49235;SDS011;35067;48.134;8.378;2023-10-09T04:55:39;8.77;;;2.83;;
49235;SDS011;35067;48.134;8.378;2023-10-09T04:56:44;11.27;;;3.23;;
49235;SDS011;35067;48.134;8.378;2023-10-09T04:57:53;10.00;;;3.17;;
49235;SDS011;35067;48.134;8.378;2023-10-09T04:59:08;14.02;;;3.25;;
49235;SDS011;35067;48.134;8.378;2023-10-09T05:00:10;13.17;;;2.63;;
49235;SDS011;35067;48.134;8.378;2023-10-09T05:01:26;11.43;;;2.87;;
49235;SDS011;35067;48.134;8.378;2023-10-09T05:02:36;14.53;;;2.90;;
49235;SDS011;35067;48.134;8.378;2023-10-09T05:03:37;15.68;;;3.08;;
49235;SDS011;35067;48.134;8.378;2023-10-09T05:04:41;9.70;;;3.03;;
49235;SDS011;35067;48.134;8.378;2023-10-09T05:05:42;9.95;;;2.80;;
49235;SDS011;35067;48.134;8.378;2023-10-09T05:06:43;10.83;;;2.97;;
49235;SDS011;35067;48.134;8.378;2023-10-09T05:07:54;11.17;;;3.10;;
49235;SDS011;35067;48.134;8.378;2023-10-09T05:08:55;10.07;;;2.80;;
49235;SDS011;35067;48.134;8.378;2023-10-09T05:10:07;10.00;;;2.53;;
49235;SDS011;35067;48.134;8.378;2023-10-09T05:11:17;11.17;;;2.40;;
49235;SDS011;35067;48.134;8.378;2023-10-09T05:12:47;13.27;;;2.80;;
49235;SDS011;35067;48.134;8.378;2023-10-09T05:13:56;13.30;;;2.67;;
49235;SDS011;35067;48.134;8.378;2023-10-09T05:15:13;10.83;;;3.20;;
49235;SDS011;35067;48.134;8.378;2023-10-09T05:16:15;11.40;;;3.27;;
49235;SDS011;35067;48.134;8.378;2023-10-09T05:17:25;9.10;;;2.80;;
49235;SDS011;35067;48.134;8.378;2023-10-09T05:18:25;14.57;;;2.90;;
49235;SDS011;35067;48.134;8.378;2023-10-09T05:19:27;12.13;;;3.00;;
49235;SDS011;35067;48.134;8.378;2023-10-09T05:20:41;9.40;;;2.47;;
49235;SDS011;35067;48.134;8.378;2023-10-09T05:21:55;9.23;;;2.70;;
49235;SDS011;35067;48.134;8.378;2023-10-09T05:22:58;11.13;;;2.83;;
49235;SDS011;35067;48.134;8.378;2023-10-09T05:24:15;11.67;;;3.00;;
49235;SDS011;35067;48.134;8.378;2023-10-09T05:25:15;12.00;;;3.40;;
49235;SDS011;35067;48.134;8.378;2023-10-09T05:26:30;12.90;;;3.25;;
49235;SDS011;35067;48.134;8.378;2023-10-09T05:27:48;14.97;;;3.03;;
49235;SDS011;35067;48.134;8.378;2023-10-09T05:28:52;10.50;;;2.50;;
49235;SDS011;35067;48.134;8.378;2023-10-09T05:29:58;12.70;;;3.13;;
49235;SDS011;35067;48.134;8.378;2023-10-09T05:31:18;9.00;;;2.93;;
49235;SDS011;35067;48.134;8.378;2023-10-09T05:32:38;9.60;;;2.95;;
49235;SDS011;35067;48.134;8.378;2023-10-09T05:33:48;11.67;;;2.80;;
49235;SDS011;35067;48.134;8.378;2023-10-09T05:34:52;9.30;;;2.70;;
49235;SDS011;35067;48.134;8.378;2023-10-09T05:36:00;11.45;;;2.97;;
49235;SDS011;35067;48.134;8.378;2023-10-09T05:37:14;8.00;;;2.60;;
49235;SDS011;35067;48.134;8.378;2023-10-09T05:38:22;12.38;;;3.25;;
49235;SDS011;35067;48.134;8.378;2023-10-09T05:39:23;13.33;;;3.07;;
49235;SDS011;35067;48.134;8.378;2023-10-09T05:40:41;11.65;;;2.80;;
49235;SDS011;35067;48.134;8.378;2023-10-09T05:41:46;11.88;;;2.90;;
49235;SDS011;35067;48.134;8.378;2023-10-09T05:42:47;8.73;;;2.50;;
49235;SDS011;35067;48.134;8.378;2023-10-09T05:43:57;13.57;;;2.80;;
49235;SDS011;35067;48.134;8.378;2023-10-09T05:45:36;10.85;;;2.88;;
49235;SDS011;35067;48.134;8.378;2023-10-09T05:46:56;9.23;;;2.75;;
49235;SDS011;35067;48.134;8.378;2023-10-09T05:48:15;10.15;;;3.03;;
49235;SDS011;35067;48.134;8.378;2023-10-09T05:49:16;10.60;;;2.90;;
49235;SDS011;35067;48.134;8.378;2023-10-09T05:50:25;10.13;;;2.80;;
49235;SDS011;35067;48.134;8.378;2023-10-09T05:51:27;11.57;;;3.00;;
49235;SDS011;35067;48.134;8.378;2023-10-09T05:52:42;8.93;;;2.80;;
49235;SDS011;35067;48.134;8.378;2023-10-09T05:53:52;12.63;;;2.67;;
49235;SDS011;35067;48.134;8.378;2023-10-09T05:55:11;9.43;;;2.67;;
49235;SDS011;35067;48.134;8.378;2023-10-09T05:56:24;12.25;;;3.17;;
49235;SDS011;35067;48.134;8.378;2023-10-09T05:57:43;12.55;;;2.72;;
49235;SDS011;35067;48.134;8.378;2023-10-09T05:58:56;9.20;;;2.92;;
49235;SDS011;35067;48.134;8.378;2023-10-09T06:00:15;9.57;;;3.08;;
49235;SDS011;35067;48.134;8.378;2023-10-09T06:01:35;10.43;;;3.05;;
49235;SDS011;35067;48.134;8.378;2023-10-09T06:02:51;10.57;;;3.67;;
49235;SDS011;35067;48.134;8.378;2023-10-09T06:04:10;10.75;;;2.92;;
49235;SDS011;35067;48.134;8.378;2023-10-09T06:05:17;9.07;;;3.15;;
49235;SDS011;35067;48.134;8.378;2023-10-09T06:06:36;14.88;;;4.80;;
49235;SDS011;35067;48.134;8.378;2023-10-09T06:07:44;15.20;;;3.83;;
49235;SDS011;35067;48.134;8.378;2023-10-09T06:09:06;14.63;;;4.50;;
49235;SDS011;35067;48.134;8.378;2023-10-09T06:10:15;10.98;;;4.38;;
49235;SDS011;35067;48.134;8.378;2023-10-09T06:11:20;11.90;;;4.35;;
49235;SDS011;35067;48.134;8.378;2023-10-09T06:12:33;13.65;;;5.00;;
49235;SDS011;35067;48.134;8.378;2023-10-09T06:13:33;14.20;;;3.97;;
49235;SDS011;35067;48.134;8.378;2023-10-09T06:14:46;10.75;;;3.85;;
49235;SDS011;35067;48.134;8.378;2023-10-09T06:15:50;11.45;;;3.85;;
49235;SDS011;35067;48.134;8.378;2023-10-09T06:16:52;12.27;;;4.60;;
49235;SDS011;35067;48.134;8.378;2023-10-09T06:18:11;11.88;;;4.40;;
49235;SDS011;35067;48.134;8.378;2023-10-09T06:19:32;14.40;;;4.70;;
49235;SDS011;35067;48.134;8.378;2023-10-09T06:20:40;12.55;;;3.50;;
49235;SDS011;35067;48.134;8.378;2023-10-09T06:22:01;13.48;;;4.05;;
49235;SDS011;35067;48.134;8.378;2023-10-09T06:23:22;9.73;;;3.75;;
49235;SDS011;35067;48.134;8.378;2023-10-09T06:24:42;11.98;;;3.95;;
49235;SDS011;35067;48.134;8.378;2023-10-09T06:25:54;15.02;;;3.72;;
49235;SDS011;35067;48.134;8.378;2023-10-09T06:27:05;12.90;;;3.80;;
49235;SDS011;35067;48.134;8.378;2023-10-09T06:28:06;13.97;;;3.50;;
49235;SDS011;35067;48.134;8.378;2023-10-09T06:29:06;13.13;;;4.37;;
49235;SDS011;35067;48.134;8.378;2023-10-09T06:30:30;12.65;;;5.72;;
49235;SDS011;35067;48.134;8.378;2023-10-09T06:31:36;11.07;;;6.37;;
49235;SDS011;35067;48.134;8.378;2023-10-09T06:32:55;19.45;;;5.18;;
49235;SDS011;35067;48.134;8.378;2023-10-09T06:33:56;9.70;;;3.60;;
49235;SDS011;35067;48.134;8.378;2023-10-09T06:35:15;10.13;;;3.88;;
49235;SDS011;35067;48.134;8.378;2023-10-09T06:36:16;18.50;;;3.92;;
49235;SDS011;35067;48.134;8.378;2023-10-09T06:37:21;11.93;;;3.42;;
49235;SDS011;35067;48.134;8.378;2023-10-09T06:38:24;13.53;;;3.53;;
49235;SDS011;35067;48.134;8.378;2023-10-09T06:39:40;9.50;;;3.63;;